createdAt,value
2023-04-30T00:03:27.696Z,99.99
2023-04-30T00:07:29.366Z,99.99
2023-04-30T00:11:30.919Z,99.99
2023-04-30T00:15:32.471Z,99.99
2023-04-30T00:19:34.074Z,99.99
2023-04-30T00:23:35.769Z,99.99
2023-04-30T00:27:38.852Z,99.99
2023-04-30T00:31:42.761Z,99.99
2023-04-30T00:35:44.502Z,99.99
2023-04-30T00:39:46.097Z,99.99
2023-04-30T00:43:47.672Z,99.99
2023-04-30T00:47:49.977Z,99.99
2023-04-30T00:51:52.250Z,99.99
2023-04-30T00:55:54.275Z,99.99
2023-04-30T00:59:56.691Z,99.99
2023-04-30T01:03:58.420Z,99.99
2023-04-30T01:07:59.986Z,99.99
2023-04-30T01:12:21.458Z,99.99
2023-04-30T01:16:27.112Z,99.99
2023-04-30T01:20:29.779Z,99.99
2023-04-30T01:24:44.339Z,99.99
2023-04-30T01:28:46.964Z,99.99
2023-04-30T01:32:48.739Z,99.99
2023-04-30T01:37:24.734Z,99.99
2023-04-30T01:41:39.798Z,99.99
2023-04-30T01:45:50.646Z,99.99
2023-04-30T01:50:01.860Z,99.99
2023-04-30T01:54:12.469Z,99.99
2023-04-30T01:58:15.718Z,99.99
2023-04-30T02:02:17.382Z,99.99
2023-04-30T02:06:19.034Z,99.99
2023-04-30T02:10:26.645Z,99.99
2023-04-30T02:14:28.256Z,99.99
2023-04-30T02:18:29.901Z,99.99
2023-04-30T02:22:31.568Z,99.99
2023-04-30T02:26:33.672Z,99.99
2023-04-30T02:30:35.290Z,99.99
2023-04-30T02:34:36.869Z,99.99
2023-04-30T02:38:38.523Z,99.99
2023-04-30T02:42:40.430Z,99.99
2023-04-30T02:46:41.955Z,99.99
2023-04-30T02:50:43.473Z,99.99
2023-04-30T02:54:45.108Z,99.99
2023-04-30T02:58:46.717Z,99.99
2023-04-30T03:02:48.300Z,99.99
2023-04-30T03:06:50.047Z,99.99
2023-04-30T03:10:52.233Z,99.99
2023-04-30T03:14:53.842Z,99.99
2023-04-30T03:18:55.435Z,99.99
2023-04-30T03:22:57.025Z,99.99
2023-04-30T03:26:58.558Z,99.99
2023-04-30T03:31:00.759Z,99.99
2023-04-30T03:35:02.343Z,99.99
2023-04-30T03:39:04.505Z,99.99
2023-04-30T03:43:06.110Z,99.99
2023-04-30T03:47:08.293Z,99.99
2023-04-30T03:51:10.328Z,99.99
2023-04-30T03:55:12.699Z,99.99
2023-04-30T03:59:14.464Z,99.99
2023-04-30T04:03:18.090Z,99.99
2023-04-30T04:07:19.655Z,99.99
2023-04-30T04:11:21.472Z,99.99
2023-04-30T04:15:23.150Z,99.99
2023-04-30T04:19:25.009Z,99.99
2023-04-30T04:23:26.870Z,99.99
2023-04-30T04:27:28.554Z,99.99
2023-04-30T04:31:31.639Z,99.99
2023-04-30T04:35:33.289Z,99.99
2023-04-30T04:39:36.615Z,99.99
2023-04-30T04:43:38.650Z,99.99
2023-04-30T04:47:40.375Z,99.99
2023-04-30T04:51:42.101Z,99.99
2023-04-30T04:55:43.712Z,99.99
2023-04-30T04:59:45.492Z,99.99
2023-04-30T05:03:47.657Z,99.99
2023-04-30T05:07:52.320Z,99.99
2023-04-30T05:11:54.183Z,99.99
2023-04-30T05:15:56.374Z,99.99
2023-04-30T05:19:58.059Z,99.99
2023-04-30T05:23:59.643Z,99.99
2023-04-30T05:28:01.250Z,99.99
2023-04-30T05:32:02.903Z,99.99
2023-04-30T05:36:04.864Z,99.99
2023-04-30T05:40:06.985Z,99.99
2023-04-30T05:44:08.477Z,99.99
2023-04-30T05:48:10.059Z,99.99
2023-04-30T05:52:11.997Z,99.99
2023-04-30T05:56:13.653Z,99.99
2023-04-30T06:00:16.076Z,99.99
2023-04-30T06:04:17.943Z,99.99
2023-04-30T06:08:19.538Z,99.99
2023-04-30T06:12:21.112Z,99.99
2023-04-30T06:16:23.470Z,99.99
2023-04-30T06:20:27.157Z,99.99
2023-04-30T06:24:30.335Z,99.99
2023-04-30T06:28:31.854Z,99.99
2023-04-30T06:32:33.477Z,99.99
2023-04-30T06:36:35.092Z,99.99
2023-04-30T06:40:36.726Z,99.99
2023-04-30T06:44:38.246Z,99.99
2023-04-30T06:48:39.852Z,99.99
2023-04-30T06:52:41.599Z,99.99
2023-04-30T06:56:45.092Z,99.99
2023-04-30T07:00:46.654Z,99.99
2023-04-30T07:04:49.433Z,99.99
2023-04-30T07:08:51.166Z,99.99
2023-04-30T07:12:52.764Z,99.99
2023-04-30T07:16:54.328Z,99.99
2023-04-30T07:20:55.826Z,99.99
2023-04-30T07:24:57.496Z,99.99
2023-04-30T07:28:59.038Z,99.99
2023-04-30T07:33:00.639Z,99.99
2023-04-30T07:37:03.205Z,99.99
2023-04-30T07:41:04.793Z,99.99
2023-04-30T07:45:06.714Z,99.99
2023-04-30T07:49:08.255Z,99.99
2023-04-30T07:53:09.894Z,99.99
2023-04-30T07:57:12.937Z,99.99
2023-04-30T08:01:15.541Z,99.99
2023-04-30T08:05:17.201Z,99.99
2023-04-30T08:09:18.850Z,99.99
2023-04-30T08:13:20.808Z,99.99
2023-04-30T08:17:22.571Z,99.99
2023-04-30T08:21:24.212Z,99.99
2023-04-30T08:25:25.913Z,99.99
2023-04-30T08:29:27.796Z,99.99
2023-04-30T08:33:29.603Z,99.99
2023-04-30T08:37:31.443Z,99.99
2023-04-30T08:41:35.994Z,99.99
2023-04-30T08:45:37.677Z,99.99
2023-04-30T08:49:40.626Z,99.99
2023-04-30T08:53:42.716Z,99.99
2023-04-30T08:57:44.340Z,99.99
2023-04-30T09:01:45.954Z,99.99
2023-04-30T09:05:47.668Z,99.99
2023-04-30T09:09:53.413Z,99.99
2023-04-30T09:13:57.346Z,99.99
2023-04-30T09:18:18.173Z,99.99
2023-04-30T09:22:22.259Z,99.99
2023-04-30T09:26:31.200Z,99.99
2023-04-30T09:30:33.639Z,99.99
2023-04-30T09:34:38.343Z,99.99
2023-04-30T09:38:40.718Z,99.99
2023-04-30T09:42:58.531Z,99.99
2023-04-30T09:47:00.403Z,99.99
2023-04-30T09:51:03.681Z,99.99
2023-04-30T09:55:05.914Z,99.99
2023-04-30T09:59:09.137Z,99.99
2023-04-30T10:03:13.418Z,99.99
2023-04-30T10:07:22.691Z,99.99
2023-04-30T10:11:28.682Z,99.99
2023-04-30T10:15:39.954Z,99.99
2023-04-30T10:19:47.851Z,99.99
2023-04-30T10:23:49.928Z,99.99
2023-04-30T10:27:51.806Z,99.99
2023-04-30T10:31:54.435Z,99.99
2023-04-30T10:36:01.615Z,99.99
2023-04-30T10:40:05.214Z,99.99
2023-04-30T10:44:08.129Z,99.99
2023-04-30T10:48:10.225Z,99.99
2023-04-30T10:52:11.834Z,99.99
2023-04-30T10:56:13.475Z,99.99
2023-04-30T11:00:19.125Z,99.99
2023-04-30T11:04:20.999Z,99.99
2023-04-30T11:08:36.873Z,99.99
2023-04-30T11:12:41.364Z,99.99
2023-04-30T11:16:43.093Z,99.99
2023-04-30T11:20:55.090Z,99.99
2023-04-30T11:24:59.745Z,99.99
2023-04-30T11:29:01.539Z,99.99
2023-04-30T11:33:04.046Z,99.99
2023-04-30T11:37:06.885Z,99.99
2023-04-30T11:41:12.821Z,99.99
2023-04-30T11:45:23.373Z,99.99
2023-04-30T11:49:25.084Z,99.99
2023-04-30T11:53:28.287Z,99.99
2023-04-30T11:57:35.415Z,99.99
2023-04-30T12:01:37.354Z,99.99
2023-04-30T12:05:41.095Z,99.99
2023-04-30T12:09:56.379Z,99.99
2023-04-30T12:14:05.386Z,99.99
2023-04-30T12:18:14.024Z,99.99
2023-04-30T12:22:15.760Z,99.99
2023-04-30T12:26:17.911Z,99.99
2023-04-30T12:30:21.467Z,99.99
2023-04-30T12:34:26.876Z,99.99
2023-04-30T12:38:28.451Z,99.99
2023-04-30T12:42:34.399Z,99.88
2023-04-30T12:46:36.024Z,98.63
2023-04-30T12:50:39.311Z,98.53
2023-04-30T12:54:41.079Z,99.99
2023-04-30T12:58:45.688Z,99.73
2023-04-30T13:02:47.361Z,98.73
2023-04-30T13:06:49.686Z,97.99
2023-04-30T13:10:51.971Z,98.44
2023-04-30T13:14:53.546Z,96.49
2023-04-30T13:18:55.417Z,96.14
2023-04-30T13:22:57.091Z,95.80
2023-04-30T13:26:59.238Z,96.00
2023-04-30T13:31:00.856Z,95.95
2023-04-30T13:35:03.162Z,94.35
2023-04-30T13:39:04.759Z,94.50
2023-04-30T13:43:06.280Z,94.70
2023-04-30T13:47:08.228Z,94.90
2023-04-30T13:51:10.071Z,94.70
2023-04-30T13:55:12.070Z,94.10
2023-04-30T13:59:14.249Z,94.50
2023-04-30T14:03:15.938Z,94.30
2023-04-30T14:07:17.710Z,94.35
2023-04-30T14:11:19.460Z,93.66
2023-04-30T14:15:21.304Z,93.26
2023-04-30T14:19:23.186Z,92.91
2023-04-30T14:23:25.940Z,93.77
2023-04-30T14:27:27.549Z,91.91
2023-04-30T14:31:29.321Z,91.31
2023-04-30T14:35:30.981Z,91.42
2023-04-30T14:39:32.558Z,90.58
2023-04-30T14:43:34.232Z,91.77
2023-04-30T14:47:35.960Z,90.77
2023-04-30T14:51:37.615Z,90.58
2023-04-30T14:55:39.864Z,90.08
2023-04-30T14:59:41.951Z,90.52
2023-04-30T15:03:43.959Z,90.77
2023-04-30T15:07:45.786Z,90.58
2023-04-30T15:11:47.912Z,90.97
2023-04-30T15:15:49.782Z,90.28
2023-04-30T15:19:51.406Z,90.97
2023-04-30T15:23:53.380Z,90.17
2023-04-30T15:27:54.983Z,89.43
2023-04-30T15:31:57.046Z,89.28
2023-04-30T15:35:59.325Z,90.81
2023-04-30T15:40:01.186Z,91.22
2023-04-30T15:44:02.741Z,90.46
2023-04-30T15:48:04.846Z,90.91
2023-04-30T15:52:06.912Z,90.96
2023-04-30T15:56:09.731Z,90.22
2023-04-30T16:00:15.262Z,90.81
2023-04-30T16:04:16.983Z,89.58
2023-04-30T16:08:18.906Z,90.52
2023-04-30T16:12:21.216Z,91.06
2023-04-30T16:16:24.351Z,90.70
2023-04-30T16:20:27.814Z,91.00
2023-04-30T16:24:29.616Z,91.55
2023-04-30T16:28:31.835Z,91.75
2023-04-30T16:32:33.506Z,92.19
2023-04-30T16:36:35.273Z,92.19
2023-04-30T16:40:36.916Z,92.24
2023-04-30T16:44:38.654Z,93.24
2023-04-30T16:48:40.251Z,93.04
2023-04-30T16:52:42.043Z,93.88
2023-04-30T16:56:43.621Z,94.38
2023-04-30T17:00:45.275Z,94.53
2023-04-30T17:04:46.905Z,94.82
2023-04-30T17:08:48.708Z,95.03
2023-04-30T17:12:50.510Z,95.37
2023-04-30T17:16:52.101Z,95.67
2023-04-30T17:20:53.750Z,96.08
2023-04-30T17:24:56.493Z,96.52
2023-04-30T17:28:59.194Z,97.02
2023-04-30T17:33:00.955Z,97.67
2023-04-30T17:37:02.865Z,97.57
2023-04-30T17:41:05.152Z,99.37
2023-04-30T17:45:07.900Z,99.02
2023-04-30T17:49:10.057Z,98.72
2023-04-30T17:53:12.147Z,98.92
2023-04-30T17:57:13.705Z,98.57
2023-04-30T18:01:15.345Z,99.67
2023-04-30T18:05:17.021Z,99.99
2023-04-30T18:09:18.686Z,99.99
2023-04-30T18:13:20.583Z,99.99
2023-04-30T18:17:22.212Z,99.99
2023-04-30T18:21:23.826Z,99.99
2023-04-30T18:25:26.070Z,99.99
2023-04-30T18:29:27.723Z,99.99
2023-04-30T18:33:29.374Z,99.99
2023-04-30T18:37:31.310Z,99.99
2023-04-30T18:41:33.021Z,99.99
2023-04-30T18:45:34.717Z,99.99
2023-04-30T18:49:36.380Z,99.99
2023-04-30T18:53:37.985Z,99.99
2023-04-30T18:57:43.361Z,99.99
2023-04-30T19:01:45.739Z,99.99
2023-04-30T19:05:47.362Z,99.99
2023-04-30T19:09:51.747Z,99.99
2023-04-30T19:13:53.663Z,99.99
2023-04-30T19:17:55.666Z,99.99
2023-04-30T19:21:57.422Z,99.99
2023-04-30T19:25:59.923Z,99.99
2023-04-30T19:30:01.534Z,99.99
2023-04-30T19:34:03.756Z,99.99
2023-04-30T19:38:06.761Z,99.99
2023-04-30T19:42:08.689Z,99.99
2023-04-30T19:46:11.695Z,99.99
2023-04-30T19:50:13.538Z,99.99
2023-04-30T19:54:15.490Z,99.99
2023-04-30T19:58:17.080Z,99.99
2023-04-30T20:02:18.685Z,99.99
2023-04-30T20:06:21.185Z,99.99
2023-04-30T20:10:23.112Z,99.99
2023-04-30T20:14:24.751Z,99.99
2023-04-30T20:18:26.353Z,99.99
2023-04-30T20:22:28.113Z,99.99
2023-04-30T20:26:29.962Z,99.99
2023-04-30T20:30:32.893Z,99.99
2023-04-30T20:34:36.446Z,99.99
2023-04-30T20:38:38.614Z,99.99
2023-04-30T20:42:40.814Z,99.99
2023-04-30T20:46:43.243Z,99.99
2023-04-30T20:50:45.525Z,99.99
2023-04-30T20:54:48.320Z,99.99
2023-04-30T20:58:50.203Z,99.99
2023-04-30T21:02:53.838Z,99.99
2023-04-30T21:06:56.660Z,99.99
2023-04-30T21:10:58.301Z,99.99
2023-04-30T21:15:00.433Z,99.99
2023-04-30T21:19:02.005Z,99.99
2023-04-30T21:23:03.547Z,99.99
2023-04-30T21:27:05.903Z,99.99
2023-04-30T21:31:08.516Z,99.99
2023-04-30T21:35:10.219Z,99.99
2023-04-30T21:39:12.055Z,99.99
2023-04-30T21:43:13.814Z,99.99
2023-04-30T21:47:15.718Z,99.99
2023-04-30T21:51:17.659Z,99.99
2023-04-30T21:55:19.481Z,99.99
2023-04-30T21:59:21.043Z,99.99
2023-04-30T22:03:22.809Z,99.99
2023-04-30T22:07:24.653Z,99.99
2023-04-30T22:11:27.116Z,99.99
2023-04-30T22:15:37.277Z,99.99
2023-04-30T22:19:49.089Z,99.99
2023-04-30T22:23:50.679Z,99.99
2023-04-30T22:27:52.230Z,99.99
2023-04-30T22:31:53.953Z,99.99
2023-04-30T22:35:56.015Z,99.99
2023-04-30T22:39:57.851Z,99.99
2023-04-30T22:43:59.732Z,99.99
2023-04-30T22:48:02.091Z,99.99
2023-04-30T22:52:04.420Z,99.99
2023-04-30T22:56:06.388Z,99.99
2023-04-30T23:00:09.707Z,99.99
2023-04-30T23:04:12.652Z,99.99
2023-04-30T23:08:14.383Z,99.99
2023-04-30T23:12:16.020Z,99.99
2023-04-30T23:16:18.032Z,99.99
2023-04-30T23:20:19.828Z,99.99
2023-04-30T23:24:21.388Z,99.99
2023-04-30T23:28:24.472Z,99.99
2023-04-30T23:32:26.167Z,99.99
2023-04-30T23:36:28.031Z,99.99
2023-04-30T23:40:29.779Z,99.99
2023-04-30T23:44:32.622Z,99.99
2023-04-30T23:48:36.002Z,99.99
2023-04-30T23:52:37.600Z,99.99
2023-04-30T23:56:40.134Z,99.99
